sensor_id;sensor_type;location;lat;lon;timestamp;P1;durP1;ratioP1;P2;durP2;ratioP2
74523;SDS011;63074;44.696;10.358;2023-04-24T00:01:27;6.70;;;3.17;;
74523;SDS011;63074;44.696;10.358;2023-04-24T00:03:54;5.60;;;3.45;;
74523;SDS011;63074;44.696;10.358;2023-04-24T00:06:24;8.18;;;3.40;;
74523;SDS011;63074;44.696;10.358;2023-04-24T00:08:57;4.78;;;3.13;;
74523;SDS011;63074;44.696;10.358;2023-04-24T00:11:25;6.43;;;3.15;;
74523;SDS011;63074;44.696;10.358;2023-04-24T00:13:52;4.95;;;2.92;;
74523;SDS011;63074;44.696;10.358;2023-04-24T00:16:18;5.20;;;3.28;;
74523;SDS011;63074;44.696;10.358;2023-04-24T00:18:45;5.68;;;3.50;;
74523;SDS011;63074;44.696;10.358;2023-04-24T00:21:12;3.58;;;3.00;;
74523;SDS011;63074;44.696;10.358;2023-04-24T00:23:40;3.65;;;3.35;;
74523;SDS011;63074;44.696;10.358;2023-04-24T00:26:06;6.32;;;3.38;;
74523;SDS011;63074;44.696;10.358;2023-04-24T00:28:32;6.00;;;3.90;;
74523;SDS011;63074;44.696;10.358;2023-04-24T00:30:58;7.13;;;3.72;;
74523;SDS011;63074;44.696;10.358;2023-04-24T00:33:24;6.18;;;3.47;;
74523;SDS011;63074;44.696;10.358;2023-04-24T00:35:50;7.18;;;4.28;;
74523;SDS011;63074;44.696;10.358;2023-04-24T00:38:17;5.20;;;3.72;;
74523;SDS011;63074;44.696;10.358;2023-04-24T00:40:43;6.00;;;3.67;;
74523;SDS011;63074;44.696;10.358;2023-04-24T00:43:10;7.32;;;4.10;;
74523;SDS011;63074;44.696;10.358;2023-04-24T00:45:36;5.72;;;3.95;;
74523;SDS011;63074;44.696;10.358;2023-04-24T00:48:03;6.18;;;3.58;;
74523;SDS011;63074;44.696;10.358;2023-04-24T00:50:29;8.02;;;4.28;;
74523;SDS011;63074;44.696;10.358;2023-04-24T00:52:56;5.55;;;4.43;;
74523;SDS011;63074;44.696;10.358;2023-04-24T00:55:22;6.00;;;3.92;;
74523;SDS011;63074;44.696;10.358;2023-04-24T00:57:49;5.40;;;4.75;;
74523;SDS011;63074;44.696;10.358;2023-04-24T01:00:16;6.45;;;4.10;;
74523;SDS011;63074;44.696;10.358;2023-04-24T01:02:43;6.40;;;4.25;;
74523;SDS011;63074;44.696;10.358;2023-04-24T01:05:10;6.32;;;4.10;;
74523;SDS011;63074;44.696;10.358;2023-04-24T01:07:38;7.43;;;4.50;;
74523;SDS011;63074;44.696;10.358;2023-04-24T01:10:09;6.20;;;4.18;;
74523;SDS011;63074;44.696;10.358;2023-04-24T01:12:35;4.82;;;3.10;;
74523;SDS011;63074;44.696;10.358;2023-04-24T01:15:02;5.80;;;3.92;;
74523;SDS011;63074;44.696;10.358;2023-04-24T01:17:28;4.82;;;4.07;;
74523;SDS011;63074;44.696;10.358;2023-04-24T01:19:56;5.85;;;4.47;;
74523;SDS011;63074;44.696;10.358;2023-04-24T01:22:22;6.20;;;4.25;;
74523;SDS011;63074;44.696;10.358;2023-04-24T01:24:48;6.05;;;4.32;;
74523;SDS011;63074;44.696;10.358;2023-04-24T01:27:14;9.15;;;5.00;;
74523;SDS011;63074;44.696;10.358;2023-04-24T01:29:41;9.93;;;4.40;;
74523;SDS011;63074;44.696;10.358;2023-04-24T01:32:07;6.60;;;4.78;;
74523;SDS011;63074;44.696;10.358;2023-04-24T01:34:33;8.63;;;4.82;;
74523;SDS011;63074;44.696;10.358;2023-04-24T01:37:00;5.80;;;4.00;;
74523;SDS011;63074;44.696;10.358;2023-04-24T01:39:26;7.53;;;4.57;;
74523;SDS011;63074;44.696;10.358;2023-04-24T01:41:53;5.53;;;4.63;;
74523;SDS011;63074;44.696;10.358;2023-04-24T01:44:20;6.18;;;4.40;;
74523;SDS011;63074;44.696;10.358;2023-04-24T01:46:47;6.70;;;4.65;;
74523;SDS011;63074;44.696;10.358;2023-04-24T01:49:13;8.57;;;4.90;;
74523;SDS011;63074;44.696;10.358;2023-04-24T01:51:40;5.88;;;4.70;;
74523;SDS011;63074;44.696;10.358;2023-04-24T01:54:06;7.53;;;4.95;;
74523;SDS011;63074;44.696;10.358;2023-04-24T01:56:33;7.22;;;4.70;;
74523;SDS011;63074;44.696;10.358;2023-04-24T01:59:00;7.80;;;5.28;;
74523;SDS011;63074;44.696;10.358;2023-04-24T02:01:32;8.10;;;5.45;;
74523;SDS011;63074;44.696;10.358;2023-04-24T02:04:01;7.03;;;5.45;;
74523;SDS011;63074;44.696;10.358;2023-04-24T02:06:27;6.55;;;5.07;;
74523;SDS011;63074;44.696;10.358;2023-04-24T02:08:53;8.40;;;5.30;;
74523;SDS011;63074;44.696;10.358;2023-04-24T02:11:19;6.53;;;5.32;;
74523;SDS011;63074;44.696;10.358;2023-04-24T02:13:46;8.32;;;5.63;;
74523;SDS011;63074;44.696;10.358;2023-04-24T02:16:12;6.30;;;5.45;;
74523;SDS011;63074;44.696;10.358;2023-04-24T02:18:38;6.80;;;5.22;;
74523;SDS011;63074;44.696;10.358;2023-04-24T02:21:04;7.55;;;5.25;;
74523;SDS011;63074;44.696;10.358;2023-04-24T02:23:30;6.68;;;5.40;;
74523;SDS011;63074;44.696;10.358;2023-04-24T02:25:56;8.88;;;5.85;;
74523;SDS011;63074;44.696;10.358;2023-04-24T02:28:23;6.78;;;5.40;;
74523;SDS011;63074;44.696;10.358;2023-04-24T02:30:49;8.23;;;5.75;;
74523;SDS011;63074;44.696;10.358;2023-04-24T02:33:16;7.30;;;5.47;;
74523;SDS011;63074;44.696;10.358;2023-04-24T02:35:42;8.05;;;5.32;;
74523;SDS011;63074;44.696;10.358;2023-04-24T02:38:08;7.78;;;5.30;;
74523;SDS011;63074;44.696;10.358;2023-04-24T02:40:34;7.65;;;6.30;;
74523;SDS011;63074;44.696;10.358;2023-04-24T02:43:00;8.27;;;5.63;;
74523;SDS011;63074;44.696;10.358;2023-04-24T02:45:26;12.38;;;5.88;;
74523;SDS011;63074;44.696;10.358;2023-04-24T02:47:52;6.43;;;5.60;;
74523;SDS011;63074;44.696;10.358;2023-04-24T02:50:19;8.60;;;5.85;;
74523;SDS011;63074;44.696;10.358;2023-04-24T02:52:45;9.52;;;5.45;;
74523;SDS011;63074;44.696;10.358;2023-04-24T02:55:11;7.22;;;5.32;;
74523;SDS011;63074;44.696;10.358;2023-04-24T02:57:38;10.52;;;6.60;;
74523;SDS011;63074;44.696;10.358;2023-04-24T03:00:04;7.72;;;6.15;;
74523;SDS011;63074;44.696;10.358;2023-04-24T03:02:32;8.95;;;6.28;;
74523;SDS011;63074;44.696;10.358;2023-04-24T03:04:59;9.63;;;6.38;;
74523;SDS011;63074;44.696;10.358;2023-04-24T03:07:25;8.73;;;6.55;;
74523;SDS011;63074;44.696;10.358;2023-04-24T03:09:51;8.27;;;6.70;;
74523;SDS011;63074;44.696;10.358;2023-04-24T03:12:17;7.95;;;5.97;;
74523;SDS011;63074;44.696;10.358;2023-04-24T03:14:43;9.32;;;7.07;;
74523;SDS011;63074;44.696;10.358;2023-04-24T03:17:10;11.82;;;6.78;;
74523;SDS011;63074;44.696;10.358;2023-04-24T03:19:36;10.90;;;7.53;;
74523;SDS011;63074;44.696;10.358;2023-04-24T03:22:02;9.55;;;6.20;;
74523;SDS011;63074;44.696;10.358;2023-04-24T03:24:29;8.32;;;5.70;;
74523;SDS011;63074;44.696;10.358;2023-04-24T03:26:55;8.43;;;5.72;;
74523;SDS011;63074;44.696;10.358;2023-04-24T03:29:22;9.25;;;6.13;;
74523;SDS011;63074;44.696;10.358;2023-04-24T03:31:48;7.38;;;5.72;;
74523;SDS011;63074;44.696;10.358;2023-04-24T03:34:14;7.93;;;5.32;;
74523;SDS011;63074;44.696;10.358;2023-04-24T03:36:40;8.68;;;6.68;;
74523;SDS011;63074;44.696;10.358;2023-04-24T03:39:07;8.65;;;6.03;;
74523;SDS011;63074;44.696;10.358;2023-04-24T03:41:33;9.27;;;6.03;;
74523;SDS011;63074;44.696;10.358;2023-04-24T03:43:59;8.55;;;6.40;;
74523;SDS011;63074;44.696;10.358;2023-04-24T03:46:25;9.15;;;5.82;;
74523;SDS011;63074;44.696;10.358;2023-04-24T03:48:51;8.65;;;6.20;;
74523;SDS011;63074;44.696;10.358;2023-04-24T03:51:18;9.32;;;6.82;;
74523;SDS011;63074;44.696;10.358;2023-04-24T03:53:44;12.55;;;6.68;;
74523;SDS011;63074;44.696;10.358;2023-04-24T03:56:10;7.88;;;5.75;;
74523;SDS011;63074;44.696;10.358;2023-04-24T03:58:36;8.23;;;6.10;;
74523;SDS011;63074;44.696;10.358;2023-04-24T04:01:03;10.18;;;6.32;;
74523;SDS011;63074;44.696;10.358;2023-04-24T04:03:29;7.80;;;6.40;;
74523;SDS011;63074;44.696;10.358;2023-04-24T04:05:55;8.18;;;6.47;;
74523;SDS011;63074;44.696;10.358;2023-04-24T04:08:21;8.05;;;6.55;;
74523;SDS011;63074;44.696;10.358;2023-04-24T04:10:47;9.63;;;6.45;;
74523;SDS011;63074;44.696;10.358;2023-04-24T04:13:14;8.70;;;5.90;;
74523;SDS011;63074;44.696;10.358;2023-04-24T04:15:40;7.07;;;5.60;;
74523;SDS011;63074;44.696;10.358;2023-04-24T04:18:06;7.97;;;5.78;;
74523;SDS011;63074;44.696;10.358;2023-04-24T04:20:33;9.15;;;6.05;;
74523;SDS011;63074;44.696;10.358;2023-04-24T04:22:59;8.20;;;6.50;;
74523;SDS011;63074;44.696;10.358;2023-04-24T04:25:25;10.05;;;6.25;;
74523;SDS011;63074;44.696;10.358;2023-04-24T04:27:52;7.47;;;6.30;;
74523;SDS011;63074;44.696;10.358;2023-04-24T04:30:18;8.70;;;6.10;;
74523;SDS011;63074;44.696;10.358;2023-04-24T04:32:45;8.40;;;6.15;;
74523;SDS011;63074;44.696;10.358;2023-04-24T04:35:12;8.52;;;6.55;;
74523;SDS011;63074;44.696;10.358;2023-04-24T04:37:38;11.95;;;6.90;;
74523;SDS011;63074;44.696;10.358;2023-04-24T04:40:05;8.90;;;6.40;;
74523;SDS011;63074;44.696;10.358;2023-04-24T04:42:32;9.68;;;6.38;;
74523;SDS011;63074;44.696;10.358;2023-04-24T04:45:05;8.82;;;6.13;;
74523;SDS011;63074;44.696;10.358;2023-04-24T04:47:33;8.48;;;5.40;;
74523;SDS011;63074;44.696;10.358;2023-04-24T04:50:00;9.43;;;6.10;;
74523;SDS011;63074;44.696;10.358;2023-04-24T04:52:28;10.93;;;6.40;;
74523;SDS011;63074;44.696;10.358;2023-04-24T04:54:54;9.75;;;6.80;;
74523;SDS011;63074;44.696;10.358;2023-04-24T04:57:21;13.35;;;6.95;;
74523;SDS011;63074;44.696;10.358;2023-04-24T04:59:47;10.80;;;6.95;;
74523;SDS011;63074;44.696;10.358;2023-04-24T05:02:13;9.45;;;7.20;;
74523;SDS011;63074;44.696;10.358;2023-04-24T05:04:39;8.57;;;6.22;;
74523;SDS011;63074;44.696;10.358;2023-04-24T05:07:06;8.75;;;6.65;;
74523;SDS011;63074;44.696;10.358;2023-04-24T05:09:32;12.82;;;7.25;;
74523;SDS011;63074;44.696;10.358;2023-04-24T05:11:58;11.32;;;6.95;;
74523;SDS011;63074;44.696;10.358;2023-04-24T05:14:25;11.85;;;7.65;;
74523;SDS011;63074;44.696;10.358;2023-04-24T05:16:51;13.32;;;7.82;;
74523;SDS011;63074;44.696;10.358;2023-04-24T05:19:17;11.55;;;7.40;;
74523;SDS011;63074;44.696;10.358;2023-04-24T05:21:44;11.27;;;6.32;;
74523;SDS011;63074;44.696;10.358;2023-04-24T05:24:10;11.43;;;7.35;;
74523;SDS011;63074;44.696;10.358;2023-04-24T05:26:36;9.38;;;7.20;;
74523;SDS011;63074;44.696;10.358;2023-04-24T05:29:03;10.93;;;8.00;;
74523;SDS011;63074;44.696;10.358;2023-04-24T05:31:29;12.50;;;8.07;;
74523;SDS011;63074;44.696;10.358;2023-04-24T05:33:55;19.45;;;8.60;;
74523;SDS011;63074;44.696;10.358;2023-04-24T05:36:21;11.30;;;8.23;;
74523;SDS011;63074;44.696;10.358;2023-04-24T05:38:48;12.68;;;7.63;;
74523;SDS011;63074;44.696;10.358;2023-04-24T05:41:14;12.07;;;8.35;;
74523;SDS011;63074;44.696;10.358;2023-04-24T05:43:40;12.43;;;7.85;;
74523;SDS011;63074;44.696;10.358;2023-04-24T05:46:06;13.35;;;7.93;;
74523;SDS011;63074;44.696;10.358;2023-04-24T05:48:33;12.00;;;7.80;;
74523;SDS011;63074;44.696;10.358;2023-04-24T05:50:59;11.05;;;7.07;;
74523;SDS011;63074;44.696;10.358;2023-04-24T05:53:25;13.63;;;7.97;;
74523;SDS011;63074;44.696;10.358;2023-04-24T05:55:52;12.15;;;7.68;;
74523;SDS011;63074;44.696;10.358;2023-04-24T05:58:18;14.15;;;8.15;;
74523;SDS011;63074;44.696;10.358;2023-04-24T06:00:44;11.00;;;8.85;;
74523;SDS011;63074;44.696;10.358;2023-04-24T06:03:11;12.70;;;7.90;;
74523;SDS011;63074;44.696;10.358;2023-04-24T06:05:38;12.68;;;8.40;;
74523;SDS011;63074;44.696;10.358;2023-04-24T06:08:04;12.35;;;7.60;;
74523;SDS011;63074;44.696;10.358;2023-04-24T06:10:30;11.95;;;7.45;;
74523;SDS011;63074;44.696;10.358;2023-04-24T06:12:56;16.33;;;8.02;;
74523;SDS011;63074;44.696;10.358;2023-04-24T06:15:26;13.02;;;8.05;;
74523;SDS011;63074;44.696;10.358;2023-04-24T06:17:53;13.93;;;8.13;;
74523;SDS011;63074;44.696;10.358;2023-04-24T06:20:19;12.15;;;8.23;;
74523;SDS011;63074;44.696;10.358;2023-04-24T06:22:46;12.50;;;7.90;;
74523;SDS011;63074;44.696;10.358;2023-04-24T06:25:12;12.38;;;8.60;;
74523;SDS011;63074;44.696;10.358;2023-04-24T06:27:38;11.32;;;8.80;;
74523;SDS011;63074;44.696;10.358;2023-04-24T06:30:05;10.65;;;7.57;;
74523;SDS011;63074;44.696;10.358;2023-04-24T06:32:32;12.05;;;8.15;;
74523;SDS011;63074;44.696;10.358;2023-04-24T06:34:58;12.05;;;8.23;;
74523;SDS011;63074;44.696;10.358;2023-04-24T06:37:24;14.50;;;8.13;;
74523;SDS011;63074;44.696;10.358;2023-04-24T06:39:50;13.32;;;7.72;;
74523;SDS011;63074;44.696;10.358;2023-04-24T06:42:17;12.75;;;8.43;;
74523;SDS011;63074;44.696;10.358;2023-04-24T06:44:45;12.70;;;8.15;;
74523;SDS011;63074;44.696;10.358;2023-04-24T06:47:11;14.80;;;9.20;;
74523;SDS011;63074;44.696;10.358;2023-04-24T06:49:41;13.60;;;7.95;;
74523;SDS011;63074;44.696;10.358;2023-04-24T06:52:07;14.38;;;9.07;;
74523;SDS011;63074;44.696;10.358;2023-04-24T06:54:34;14.05;;;9.15;;
74523;SDS011;63074;44.696;10.358;2023-04-24T06:57:00;11.77;;;8.00;;
74523;SDS011;63074;44.696;10.358;2023-04-24T06:59:28;13.95;;;8.43;;
74523;SDS011;63074;44.696;10.358;2023-04-24T07:01:55;12.75;;;8.23;;
74523;SDS011;63074;44.696;10.358;2023-04-24T07:04:21;10.65;;;7.40;;
74523;SDS011;63074;44.696;10.358;2023-04-24T07:06:49;13.85;;;8.60;;
74523;SDS011;63074;44.696;10.358;2023-04-24T07:09:16;12.48;;;8.43;;
74523;SDS011;63074;44.696;10.358;2023-04-24T07:11:43;12.80;;;8.18;;
74523;SDS011;63074;44.696;10.358;2023-04-24T07:14:10;9.77;;;6.68;;
74523;SDS011;63074;44.696;10.358;2023-04-24T07:16:37;12.48;;;7.03;;
74523;SDS011;63074;44.696;10.358;2023-04-24T07:19:03;13.13;;;7.30;;
74523;SDS011;63074;44.696;10.358;2023-04-24T07:21:30;11.85;;;8.02;;
74523;SDS011;63074;44.696;10.358;2023-04-24T07:23:57;14.35;;;8.45;;
74523;SDS011;63074;44.696;10.358;2023-04-24T07:26:23;11.63;;;7.28;;
74523;SDS011;63074;44.696;10.358;2023-04-24T07:28:50;12.63;;;8.20;;
74523;SDS011;63074;44.696;10.358;2023-04-24T07:31:16;11.95;;;8.25;;
74523;SDS011;63074;44.696;10.358;2023-04-24T07:33:43;14.35;;;9.68;;
74523;SDS011;63074;44.696;10.358;2023-04-24T07:36:09;13.60;;;8.75;;
74523;SDS011;63074;44.696;10.358;2023-04-24T07:38:40;14.50;;;9.32;;
74523;SDS011;63074;44.696;10.358;2023-04-24T07:41:07;11.88;;;8.25;;
74523;SDS011;63074;44.696;10.358;2023-04-24T07:43:33;15.02;;;9.32;;
74523;SDS011;63074;44.696;10.358;2023-04-24T07:46:00;12.00;;;7.47;;
74523;SDS011;63074;44.696;10.358;2023-04-24T07:48:26;13.30;;;9.02;;
74523;SDS011;63074;44.696;10.358;2023-04-24T07:50:53;14.20;;;9.63;;
74523;SDS011;63074;44.696;10.358;2023-04-24T07:53:19;13.65;;;9.10;;
74523;SDS011;63074;44.696;10.358;2023-04-24T07:55:45;14.73;;;9.80;;
74523;SDS011;63074;44.696;10.358;2023-04-24T07:58:12;13.38;;;9.23;;
74523;SDS011;63074;44.696;10.358;2023-04-24T08:00:38;10.55;;;7.88;;
74523;SDS011;63074;44.696;10.358;2023-04-24T08:03:04;13.77;;;9.30;;
74523;SDS011;63074;44.696;10.358;2023-04-24T08:05:30;11.68;;;8.80;;
74523;SDS011;63074;44.696;10.358;2023-04-24T08:07:57;11.95;;;8.77;;
74523;SDS011;63074;44.696;10.358;2023-04-24T08:10:23;12.68;;;8.45;;
74523;SDS011;63074;44.696;10.358;2023-04-24T08:12:50;12.50;;;8.38;;
74523;SDS011;63074;44.696;10.358;2023-04-24T08:15:16;11.75;;;7.78;;
74523;SDS011;63074;44.696;10.358;2023-04-24T08:17:43;10.13;;;7.72;;
74523;SDS011;63074;44.696;10.358;2023-04-24T08:20:09;12.52;;;8.00;;
74523;SDS011;63074;44.696;10.358;2023-04-24T08:22:40;11.57;;;8.40;;
74523;SDS011;63074;44.696;10.358;2023-04-24T08:25:07;9.98;;;8.25;;
74523;SDS011;63074;44.696;10.358;2023-04-24T08:27:36;13.38;;;8.35;;
74523;SDS011;63074;44.696;10.358;2023-04-24T08:30:04;10.07;;;8.38;;
74523;SDS011;63074;44.696;10.358;2023-04-24T08:32:31;11.45;;;8.00;;
74523;SDS011;63074;44.696;10.358;2023-04-24T08:34:57;11.43;;;7.72;;
74523;SDS011;63074;44.696;10.358;2023-04-24T08:37:25;11.63;;;7.72;;
74523;SDS011;63074;44.696;10.358;2023-04-24T08:39:52;11.15;;;8.60;;
74523;SDS011;63074;44.696;10.358;2023-04-24T08:42:19;11.18;;;7.50;;
74523;SDS011;63074;44.696;10.358;2023-04-24T08:44:46;12.65;;;8.18;;
74523;SDS011;63074;44.696;10.358;2023-04-24T08:47:13;11.65;;;7.40;;
74523;SDS011;63074;44.696;10.358;2023-04-24T08:49:41;11.10;;;7.03;;
74523;SDS011;63074;44.696;10.358;2023-04-24T08:52:07;15.15;;;7.50;;
74523;SDS011;63074;44.696;10.358;2023-04-24T08:54:34;10.10;;;5.97;;
74523;SDS011;63074;44.696;10.358;2023-04-24T08:57:01;8.05;;;4.97;;
74523;SDS011;63074;44.696;10.358;2023-04-24T08:59:29;8.13;;;5.72;;
74523;SDS011;63074;44.696;10.358;2023-04-24T09:01:56;7.30;;;5.68;;
74523;SDS011;63074;44.696;10.358;2023-04-24T09:04:23;8.00;;;6.10;;
74523;SDS011;63074;44.696;10.358;2023-04-24T09:06:56;9.13;;;6.00;;
74523;SDS011;63074;44.696;10.358;2023-04-24T09:09:24;6.93;;;4.65;;
74523;SDS011;63074;44.696;10.358;2023-04-24T09:11:51;5.82;;;4.32;;
74523;SDS011;63074;44.696;10.358;2023-04-24T09:14:20;5.88;;;4.30;;
74523;SDS011;63074;44.696;10.358;2023-04-24T09:16:48;6.65;;;3.83;;
74523;SDS011;63074;44.696;10.358;2023-04-24T09:19:15;7.60;;;4.45;;
74523;SDS011;63074;44.696;10.358;2023-04-24T09:21:41;8.23;;;4.43;;
74523;SDS011;63074;44.696;10.358;2023-04-24T09:24:20;6.88;;;4.18;;
74523;SDS011;63074;44.696;10.358;2023-04-24T09:26:48;5.07;;;4.18;;
74523;SDS011;63074;44.696;10.358;2023-04-24T09:29:20;6.45;;;3.67;;
74523;SDS011;63074;44.696;10.358;2023-04-24T09:31:47;5.97;;;4.25;;
74523;SDS011;63074;44.696;10.358;2023-04-24T09:34:13;7.25;;;4.53;;
74523;SDS011;63074;44.696;10.358;2023-04-24T09:36:40;7.53;;;4.10;;
74523;SDS011;63074;44.696;10.358;2023-04-24T09:39:11;6.50;;;5.22;;
74523;SDS011;63074;44.696;10.358;2023-04-24T09:41:49;6.72;;;4.63;;
74523;SDS011;63074;44.696;10.358;2023-04-24T09:44:21;8.63;;;5.97;;
74523;SDS011;63074;44.696;10.358;2023-04-24T09:46:50;7.57;;;5.55;;
74523;SDS011;63074;44.696;10.358;2023-04-24T09:49:25;6.43;;;4.82;;
74523;SDS011;63074;44.696;10.358;2023-04-24T09:52:02;6.45;;;4.60;;
74523;SDS011;63074;44.696;10.358;2023-04-24T09:54:33;9.30;;;4.25;;
74523;SDS011;63074;44.696;10.358;2023-04-24T09:57:01;8.77;;;4.68;;
74523;SDS011;63074;44.696;10.358;2023-04-24T09:59:28;7.55;;;5.32;;
74523;SDS011;63074;44.696;10.358;2023-04-24T10:01:55;5.68;;;4.38;;
74523;SDS011;63074;44.696;10.358;2023-04-24T10:04:27;4.10;;;2.70;;
74523;SDS011;63074;44.696;10.358;2023-04-24T10:06:54;4.72;;;3.63;;
74523;SDS011;63074;44.696;10.358;2023-04-24T10:09:22;8.25;;;4.90;;
74523;SDS011;63074;44.696;10.358;2023-04-24T10:11:51;7.82;;;5.75;;
74523;SDS011;63074;44.696;10.358;2023-04-24T10:14:19;5.13;;;4.03;;
74523;SDS011;63074;44.696;10.358;2023-04-24T10:16:47;4.88;;;3.95;;
74523;SDS011;63074;44.696;10.358;2023-04-24T10:19:15;5.45;;;3.72;;
74523;SDS011;63074;44.696;10.358;2023-04-24T10:21:43;6.00;;;3.80;;
74523;SDS011;63074;44.696;10.358;2023-04-24T10:26:40;8.75;;;2.90;;
74523;SDS011;63074;44.696;10.358;2023-04-24T10:29:07;5.75;;;3.72;;
74523;SDS011;63074;44.696;10.358;2023-04-24T10:31:37;6.60;;;3.25;;
74523;SDS011;63074;44.696;10.358;2023-04-24T10:34:05;4.57;;;3.28;;
74523;SDS011;63074;44.696;10.358;2023-04-24T10:36:36;7.95;;;3.70;;
74523;SDS011;63074;44.696;10.358;2023-04-24T10:39:09;3.88;;;3.25;;
74523;SDS011;63074;44.696;10.358;2023-04-24T10:44:04;6.47;;;3.85;;
74523;SDS011;63074;44.696;10.358;2023-04-24T10:46:34;5.03;;;3.92;;
74523;SDS011;63074;44.696;10.358;2023-04-24T10:49:05;4.05;;;3.08;;
74523;SDS011;63074;44.696;10.358;2023-04-24T10:51:51;5.18;;;4.00;;
74523;SDS011;63074;44.696;10.358;2023-04-24T10:54:25;4.40;;;3.53;;
74523;SDS011;63074;44.696;10.358;2023-04-24T10:56:51;6.82;;;3.75;;
74523;SDS011;63074;44.696;10.358;2023-04-24T10:59:25;4.05;;;3.55;;
74523;SDS011;63074;44.696;10.358;2023-04-24T11:01:52;4.95;;;3.33;;
74523;SDS011;63074;44.696;10.358;2023-04-24T11:10:08;5.50;;;4.00;;
74523;SDS011;63074;44.696;10.358;2023-04-24T11:12:51;5.88;;;4.20;;
74523;SDS011;63074;44.696;10.358;2023-04-24T11:15:17;6.57;;;5.03;;
74523;SDS011;63074;44.696;10.358;2023-04-24T11:17:44;7.50;;;4.68;;
74523;SDS011;63074;44.696;10.358;2023-04-24T11:20:11;7.57;;;5.20;;
74523;SDS011;63074;44.696;10.358;2023-04-24T11:22:42;6.00;;;5.40;;
74523;SDS011;63074;44.696;10.358;2023-04-24T11:25:09;6.47;;;4.85;;
74523;SDS011;63074;44.696;10.358;2023-04-24T11:30:07;6.10;;;4.63;;
74523;SDS011;63074;44.696;10.358;2023-04-24T11:35:01;7.97;;;4.60;;
74523;SDS011;63074;44.696;10.358;2023-04-24T11:37:41;5.93;;;5.07;;
74523;SDS011;63074;44.696;10.358;2023-04-24T11:40:14;5.40;;;4.90;;
74523;SDS011;63074;44.696;10.358;2023-04-24T11:42:42;6.80;;;5.32;;
74523;SDS011;63074;44.696;10.358;2023-04-24T11:45:10;5.78;;;4.88;;
74523;SDS011;63074;44.696;10.358;2023-04-24T11:47:38;6.25;;;5.20;;
74523;SDS011;63074;44.696;10.358;2023-04-24T11:50:06;8.55;;;6.10;;
74523;SDS011;63074;44.696;10.358;2023-04-24T11:52:37;7.10;;;4.95;;
74523;SDS011;63074;44.696;10.358;2023-04-24T11:55:12;5.55;;;4.75;;
74523;SDS011;63074;44.696;10.358;2023-04-24T11:57:52;5.53;;;4.25;;
74523;SDS011;63074;44.696;10.358;2023-04-24T12:00:24;7.95;;;4.93;;
74523;SDS011;63074;44.696;10.358;2023-04-24T12:03:04;6.72;;;5.70;;
74523;SDS011;63074;44.696;10.358;2023-04-24T12:05:33;6.85;;;5.90;;
74523;SDS011;63074;44.696;10.358;2023-04-24T12:08:00;6.32;;;4.82;;
74523;SDS011;63074;44.696;10.358;2023-04-24T12:10:27;9.20;;;6.80;;
74523;SDS011;63074;44.696;10.358;2023-04-24T12:12:55;7.22;;;5.97;;
74523;SDS011;63074;44.696;10.358;2023-04-24T12:15:22;6.63;;;5.93;;
74523;SDS011;63074;44.696;10.358;2023-04-24T12:17:52;8.32;;;6.13;;
74523;SDS011;63074;44.696;10.358;2023-04-24T12:20:32;7.15;;;6.38;;
74523;SDS011;63074;44.696;10.358;2023-04-24T12:22:59;7.35;;;5.63;;
74523;SDS011;63074;44.696;10.358;2023-04-24T12:25:27;5.90;;;5.30;;
74523;SDS011;63074;44.696;10.358;2023-04-24T12:27:54;6.65;;;5.88;;
74523;SDS011;63074;44.696;10.358;2023-04-24T12:30:47;6.20;;;5.10;;
74523;SDS011;63074;44.696;10.358;2023-04-24T12:33:19;6.60;;;4.97;;
74523;SDS011;63074;44.696;10.358;2023-04-24T12:35:47;5.88;;;5.22;;
74523;SDS011;63074;44.696;10.358;2023-04-24T12:38:21;6.00;;;4.88;;
74523;SDS011;63074;44.696;10.358;2023-04-24T12:41:00;6.93;;;5.90;;
74523;SDS011;63074;44.696;10.358;2023-04-24T12:43:29;6.53;;;5.75;;
74523;SDS011;63074;44.696;10.358;2023-04-24T12:45:55;6.90;;;4.65;;
74523;SDS011;63074;44.696;10.358;2023-04-24T12:48:22;6.60;;;5.25;;
74523;SDS011;63074;44.696;10.358;2023-04-24T12:50:48;7.53;;;6.28;;
74523;SDS011;63074;44.696;10.358;2023-04-24T12:53:14;6.85;;;6.15;;
74523;SDS011;63074;44.696;10.358;2023-04-24T12:55:41;7.03;;;6.32;;
74523;SDS011;63074;44.696;10.358;2023-04-24T12:58:07;5.85;;;5.22;;
74523;SDS011;63074;44.696;10.358;2023-04-24T13:00:33;6.50;;;5.75;;
74523;SDS011;63074;44.696;10.358;2023-04-24T13:02:59;7.10;;;5.65;;
74523;SDS011;63074;44.696;10.358;2023-04-24T13:05:26;6.43;;;5.60;;
74523;SDS011;63074;44.696;10.358;2023-04-24T13:07:52;6.15;;;5.40;;
74523;SDS011;63074;44.696;10.358;2023-04-24T13:10:18;6.32;;;5.53;;
74523;SDS011;63074;44.696;10.358;2023-04-24T13:12:45;7.65;;;5.60;;
74523;SDS011;63074;44.696;10.358;2023-04-24T13:15:11;7.13;;;5.40;;
74523;SDS011;63074;44.696;10.358;2023-04-24T13:17:38;7.63;;;5.50;;
74523;SDS011;63074;44.696;10.358;2023-04-24T13:20:05;5.63;;;4.65;;
74523;SDS011;63074;44.696;10.358;2023-04-24T13:22:31;3.75;;;1.80;;
74523;SDS011;63074;44.696;10.358;2023-04-24T13:24:57;6.30;;;1.42;;
74523;SDS011;63074;44.696;10.358;2023-04-24T13:27:24;2.40;;;1.15;;
74523;SDS011;63074;44.696;10.358;2023-04-24T13:29:50;1.55;;;0.88;;
74523;SDS011;63074;44.696;10.358;2023-04-24T13:32:16;1.50;;;1.08;;
74523;SDS011;63074;44.696;10.358;2023-04-24T13:34:43;1.50;;;0.60;;
74523;SDS011;63074;44.696;10.358;2023-04-24T13:37:09;1.10;;;0.38;;
74523;SDS011;63074;44.696;10.358;2023-04-24T13:39:35;0.95;;;0.32;;
74523;SDS011;63074;44.696;10.358;2023-04-24T13:42:01;2.92;;;0.40;;
74523;SDS011;63074;44.696;10.358;2023-04-24T13:44:28;1.60;;;0.57;;
74523;SDS011;63074;44.696;10.358;2023-04-24T13:46:54;1.38;;;0.40;;
74523;SDS011;63074;44.696;10.358;2023-04-24T13:49:22;0.70;;;0.22;;
74523;SDS011;63074;44.696;10.358;2023-04-24T13:51:50;1.33;;;0.32;;
74523;SDS011;63074;44.696;10.358;2023-04-24T13:54:17;1.75;;;0.47;;
74523;SDS011;63074;44.696;10.358;2023-04-24T13:56:43;1.60;;;0.30;;
74523;SDS011;63074;44.696;10.358;2023-04-24T13:59:11;1.02;;;0.32;;
74523;SDS011;63074;44.696;10.358;2023-04-24T14:01:37;1.30;;;0.38;;
74523;SDS011;63074;44.696;10.358;2023-04-24T14:04:04;1.13;;;0.20;;
74523;SDS011;63074;44.696;10.358;2023-04-24T14:06:30;2.53;;;0.20;;
74523;SDS011;63074;44.696;10.358;2023-04-24T14:08:56;1.05;;;0.60;;
74523;SDS011;63074;44.696;10.358;2023-04-24T14:11:22;1.58;;;0.45;;
74523;SDS011;63074;44.696;10.358;2023-04-24T14:13:48;1.17;;;0.20;;
74523;SDS011;63074;44.696;10.358;2023-04-24T14:16:15;0.98;;;0.40;;
74523;SDS011;63074;44.696;10.358;2023-04-24T14:18:41;1.95;;;0.35;;
74523;SDS011;63074;44.696;10.358;2023-04-24T14:21:07;1.50;;;0.50;;
74523;SDS011;63074;44.696;10.358;2023-04-24T14:23:33;1.75;;;0.30;;
74523;SDS011;63074;44.696;10.358;2023-04-24T14:26:00;2.83;;;0.47;;
74523;SDS011;63074;44.696;10.358;2023-04-24T14:28:26;1.33;;;0.63;;
74523;SDS011;63074;44.696;10.358;2023-04-24T14:30:52;1.67;;;0.47;;
74523;SDS011;63074;44.696;10.358;2023-04-24T14:33:18;2.17;;;0.88;;
74523;SDS011;63074;44.696;10.358;2023-04-24T14:35:45;1.02;;;0.60;;
74523;SDS011;63074;44.696;10.358;2023-04-24T14:38:12;1.33;;;0.22;;
74523;SDS011;63074;44.696;10.358;2023-04-24T14:40:40;2.85;;;0.50;;
74523;SDS011;63074;44.696;10.358;2023-04-24T14:43:06;1.52;;;0.45;;
74523;SDS011;63074;44.696;10.358;2023-04-24T14:45:32;2.45;;;0.73;;
74523;SDS011;63074;44.696;10.358;2023-04-24T14:47:58;2.53;;;0.45;;